createdAt,value
2018-08-25T00:00:06.239Z,16.57
2018-08-25T00:01:32.531Z,16.55
2018-08-25T00:02:59.865Z,16.53
2018-08-25T00:04:27.509Z,16.52
2018-08-25T00:05:54.968Z,16.49
2018-08-25T00:07:23.449Z,16.48
2018-08-25T00:08:49.881Z,16.48
2018-08-25T00:10:15.793Z,16.47
2018-08-25T00:11:43.361Z,16.44
2018-08-25T00:13:11.999Z,16.43
2018-08-25T00:14:39.216Z,16.43
2018-08-25T00:16:06.610Z,16.42
2018-08-25T00:17:33.304Z,16.41
2018-08-25T00:18:59.764Z,16.40
2018-08-25T00:20:28.284Z,16.38
2018-08-25T00:21:53.922Z,16.38
2018-08-25T00:23:22.548Z,16.36
2018-08-25T00:24:48.478Z,16.34
2018-08-25T00:26:15.056Z,16.33
2018-08-25T00:27:43.594Z,16.31
2018-08-25T00:29:09.787Z,16.29
2018-08-25T00:30:37.214Z,16.28
2018-08-25T00:32:03.422Z,16.27
2018-08-25T00:33:30.672Z,16.26
2018-08-25T00:34:58.050Z,16.24
2018-08-25T00:36:25.848Z,16.21
2018-08-25T00:37:52.521Z,16.16
2018-08-25T00:39:19.865Z,16.14
2018-08-25T00:40:47.377Z,16.11
2018-08-25T00:42:14.930Z,16.09
2018-08-25T00:43:42.349Z,16.09
2018-08-25T00:45:09.796Z,16.06
2018-08-25T00:46:37.159Z,16.04
2018-08-25T00:48:04.808Z,16.03
2018-08-25T00:49:31.261Z,16.03
2018-08-25T00:50:58.364Z,16.02
2018-08-25T00:52:25.713Z,16.00
2018-08-25T00:53:53.268Z,16.00
2018-08-25T00:55:20.672Z,15.98
2018-08-25T00:56:46.902Z,15.96
2018-08-25T00:58:14.396Z,15.94
2018-08-25T00:59:42.965Z,15.89
2018-08-25T01:01:09.222Z,15.82
2018-08-25T01:02:37.734Z,15.77
2018-08-25T01:04:05.101Z,15.75
2018-08-25T01:05:31.388Z,15.71
2018-08-25T01:06:59.869Z,15.67
2018-08-25T01:08:27.267Z,15.62
2018-08-25T01:09:54.605Z,15.57
2018-08-25T01:11:22.084Z,15.55
2018-08-25T01:12:48.372Z,15.50
2018-08-25T01:14:16.873Z,15.48
2018-08-25T01:15:43.349Z,15.49
2018-08-25T01:17:10.596Z,15.48
2018-08-25T01:18:35.834Z,15.46
2018-08-25T01:20:03.231Z,15.43
2018-08-25T01:21:30.695Z,15.39
2018-08-25T01:22:59.129Z,15.37
2018-08-25T01:24:28.492Z,15.33
2018-08-25T01:25:52.720Z,15.29
2018-08-25T01:27:18.982Z,15.27
2018-08-25T01:28:45.174Z,15.26
2018-08-25T01:30:15.670Z,15.23
2018-08-25T01:31:41.082Z,15.22
2018-08-25T01:33:07.568Z,15.22
2018-08-25T01:34:34.885Z,15.21
2018-08-25T01:36:03.228Z,15.21
2018-08-25T01:37:28.313Z,15.19
2018-08-25T01:38:56.125Z,15.17
2018-08-25T01:40:22.229Z,15.13
2018-08-25T01:41:48.545Z,15.11
2018-08-25T01:43:17.175Z,15.07
2018-08-25T01:44:43.309Z,15.05
2018-08-25T01:46:11.820Z,15.02
2018-08-25T01:47:37.722Z,15.01
2018-08-25T01:49:04.176Z,15.01
2018-08-25T01:50:30.304Z,15.01
2018-08-25T01:51:56.061Z,15.00
2018-08-25T01:53:23.236Z,14.98
2018-08-25T01:54:49.318Z,14.97
2018-08-25T01:56:16.744Z,14.95
2018-08-25T01:57:45.110Z,14.92
2018-08-25T01:59:11.398Z,14.93
2018-08-25T02:00:41.938Z,14.93
2018-08-25T02:02:06.139Z,14.92
2018-08-25T02:03:33.554Z,14.91
2018-08-25T02:05:00.878Z,14.88
2018-08-25T02:06:28.238Z,14.88
2018-08-25T02:07:54.522Z,14.85
2018-08-25T02:09:20.433Z,14.83
2018-08-25T02:10:47.746Z,14.79
2018-08-25T02:12:15.136Z,14.81
2018-08-25T02:13:43.711Z,14.81
2018-08-25T02:15:11.042Z,14.79
2018-08-25T02:16:36.201Z,14.78
2018-08-25T02:18:03.450Z,14.75
2018-08-25T02:19:29.865Z,14.73
2018-08-25T02:20:57.260Z,14.71
2018-08-25T02:22:22.562Z,14.69
2018-08-25T02:23:48.925Z,14.66
2018-08-25T02:25:17.317Z,14.65
2018-08-25T02:26:42.617Z,14.65
2018-08-25T02:28:10.010Z,14.63
2018-08-25T02:29:37.429Z,14.62
2018-08-25T02:31:04.295Z,14.60
2018-08-25T02:32:31.876Z,14.56
2018-08-25T02:33:59.411Z,14.55
2018-08-25T02:35:25.935Z,14.53
2018-08-25T02:36:53.119Z,14.51
2018-08-25T02:38:20.529Z,14.49
2018-08-25T02:39:45.484Z,14.49
2018-08-25T02:41:11.466Z,14.48
2018-08-25T02:42:38.746Z,14.46
2018-08-25T02:44:07.226Z,14.47
2018-08-25T02:45:34.515Z,14.46
2018-08-25T02:47:00.760Z,14.42
2018-08-25T02:48:27.353Z,14.41
2018-08-25T02:49:55.820Z,14.40
2018-08-25T02:51:22.413Z,14.38
2018-08-25T02:52:48.504Z,14.38
2018-08-25T02:54:15.751Z,14.38
2018-08-25T02:55:42.964Z,14.37
2018-08-25T02:57:10.294Z,14.36
2018-08-25T02:58:35.386Z,14.35
2018-08-25T03:00:02.515Z,14.35
2018-08-25T03:01:29.981Z,14.33
2018-08-25T03:02:55.558Z,14.28
2018-08-25T03:04:22.664Z,14.26
2018-08-25T03:05:53.149Z,14.24
2018-08-25T03:07:17.270Z,14.25
2018-08-25T03:08:44.689Z,14.24
2018-08-25T03:10:12.040Z,14.23
2018-08-25T03:11:40.557Z,14.23
2018-08-25T03:13:07.033Z,14.23
2018-08-25T03:14:35.503Z,14.24
2018-08-25T03:16:03.071Z,14.19
2018-08-25T03:17:29.190Z,14.12
2018-08-25T03:18:55.905Z,14.08
2018-08-25T03:20:23.283Z,14.00
2018-08-25T03:21:48.383Z,13.96
2018-08-25T03:23:15.862Z,13.94
2018-08-25T03:24:43.192Z,13.96
2018-08-25T03:26:10.702Z,13.90
2018-08-25T03:27:38.197Z,13.83
2018-08-25T03:29:05.611Z,13.80
2018-08-25T03:30:32.939Z,13.81
2018-08-25T03:31:59.313Z,13.77
2018-08-25T03:33:25.731Z,13.76
2018-08-25T03:34:53.016Z,13.79
2018-08-25T03:36:21.488Z,13.84
2018-08-25T03:37:50.910Z,13.88
2018-08-25T03:39:15.147Z,13.92
2018-08-25T03:40:41.406Z,13.96
2018-08-25T03:42:09.834Z,13.99
2018-08-25T03:43:37.166Z,14.00
2018-08-25T03:45:04.709Z,14.01
2018-08-25T03:46:30.738Z,14.05
2018-08-25T03:47:58.316Z,14.06
2018-08-25T03:49:24.612Z,14.08
2018-08-25T03:50:51.908Z,14.10
2018-08-25T03:52:19.506Z,14.09
2018-08-25T03:53:46.612Z,14.10
2018-08-25T03:55:13.702Z,14.11
2018-08-25T03:56:40.927Z,14.11
2018-08-25T03:58:05.825Z,14.04
2018-08-25T03:59:33.259Z,14.02
2018-08-25T04:01:00.709Z,14.04
2018-08-25T04:02:28.329Z,14.01
2018-08-25T04:03:55.827Z,13.99
2018-08-25T04:05:21.948Z,14.00
2018-08-25T04:06:50.531Z,13.99
2018-08-25T04:08:16.804Z,14.00
2018-08-25T04:09:43.185Z,13.99
2018-08-25T04:11:10.557Z,13.99
2018-08-25T04:12:39.047Z,13.98
2018-08-25T04:14:05.224Z,13.96
2018-08-25T04:15:34.617Z,13.93
2018-08-25T04:16:59.879Z,13.91
2018-08-25T04:18:28.321Z,13.90
2018-08-25T04:19:52.746Z,13.91
2018-08-25T04:21:19.040Z,13.93
2018-08-25T04:22:46.068Z,13.87
2018-08-25T04:24:10.986Z,13.80
2018-08-25T04:25:38.330Z,13.74
2018-08-25T04:27:04.634Z,13.73
2018-08-25T04:28:31.915Z,13.75
2018-08-25T04:29:59.424Z,13.71
2018-08-25T04:31:26.501Z,13.63
2018-08-25T04:32:54.633Z,13.59
2018-08-25T04:34:20.018Z,13.50
2018-08-25T04:35:47.351Z,13.46
2018-08-25T04:37:15.875Z,13.46
2018-08-25T04:38:42.133Z,13.46
2018-08-25T04:41:37.062Z,13.56
2018-08-25T04:43:05.519Z,13.62
2018-08-25T04:44:31.746Z,13.67
2018-08-25T04:45:59.276Z,13.70
2018-08-25T04:47:26.708Z,13.72
2018-08-25T04:48:53.709Z,13.75
2018-08-25T04:50:22.220Z,13.80
2018-08-25T04:51:49.502Z,13.84
2018-08-25T04:53:16.832Z,13.88
2018-08-25T04:54:43.453Z,13.93
2018-08-25T04:56:11.779Z,13.97
2018-08-25T04:57:39.031Z,14.00
2018-08-25T04:59:05.350Z,14.02
2018-08-25T05:00:32.772Z,14.05
2018-08-25T05:01:59.805Z,14.08
2018-08-25T05:03:27.086Z,14.10
2018-08-25T05:04:52.949Z,14.11
2018-08-25T05:06:20.230Z,14.13
2018-08-25T05:07:46.528Z,14.15
2018-08-25T05:09:12.672Z,14.17
2018-08-25T05:10:40.964Z,14.19
2018-08-25T05:12:07.298Z,14.22
2018-08-25T05:13:35.769Z,14.25
2018-08-25T05:15:03.090Z,14.27
2018-08-25T05:16:29.418Z,14.27
2018-08-25T05:17:56.532Z,14.28
2018-08-25T05:19:22.009Z,14.30
2018-08-25T05:20:49.364Z,14.32
2018-08-25T05:22:17.012Z,14.34
2018-08-25T05:23:44.288Z,14.34
2018-08-25T05:25:12.705Z,14.36
2018-08-25T05:26:40.083Z,14.38
2018-08-25T05:28:07.585Z,14.39
2018-08-25T05:29:34.898Z,14.40
2018-08-25T05:31:02.361Z,14.41
2018-08-25T05:32:28.582Z,14.43
2018-08-25T05:33:55.207Z,14.48
2018-08-25T05:35:22.356Z,14.51
2018-08-25T05:36:49.767Z,14.56
2018-08-25T05:38:18.284Z,14.61
2018-08-25T05:39:43.326Z,14.63
2018-08-25T05:41:11.782Z,14.61
2018-08-25T05:42:39.360Z,14.60
2018-08-25T05:44:05.900Z,14.63
2018-08-25T05:45:32.747Z,14.65
2018-08-25T05:46:59.279Z,14.69
2018-08-25T05:48:27.538Z,14.74
2018-08-25T05:49:54.717Z,14.80
2018-08-25T05:51:22.238Z,14.83
2018-08-25T05:52:47.594Z,14.88
2018-08-25T05:54:18.182Z,14.92
2018-08-25T05:55:42.360Z,14.99
2018-08-25T05:57:09.807Z,15.02
2018-08-25T05:58:36.185Z,15.07
2018-08-25T06:00:04.619Z,15.11
2018-08-25T06:01:31.017Z,15.18
2018-08-25T06:03:01.512Z,15.25
2018-08-25T06:04:26.340Z,15.34
2018-08-25T06:05:53.495Z,15.36
2018-08-25T06:07:18.953Z,15.41
2018-08-25T06:08:47.478Z,15.45
2018-08-25T06:10:13.778Z,15.48
2018-08-25T06:11:42.431Z,15.53
2018-08-25T06:13:07.634Z,15.55
2018-08-25T06:14:34.972Z,15.58
2018-08-25T06:16:03.462Z,15.62
2018-08-25T06:17:30.607Z,15.68
2018-08-25T06:18:56.817Z,15.81
2018-08-25T06:20:24.223Z,15.96
2018-08-25T06:21:52.483Z,16.12
2018-08-25T06:23:18.885Z,16.28
2018-08-25T06:24:47.309Z,16.39
2018-08-25T06:26:16.834Z,16.42
2018-08-25T06:27:41.565Z,16.43
2018-08-25T06:29:08.840Z,16.40
2018-08-25T06:30:35.235Z,16.39
2018-08-25T06:32:03.537Z,16.36
2018-08-25T06:33:31.080Z,16.39
2018-08-25T06:34:58.455Z,16.41
2018-08-25T06:36:24.833Z,16.40
2018-08-25T06:37:52.314Z,16.37
2018-08-25T06:39:19.679Z,16.36
2018-08-25T06:40:46.991Z,16.39
2018-08-25T06:42:13.387Z,16.45
2018-08-25T06:43:41.042Z,16.51
2018-08-25T06:45:09.538Z,16.61
2018-08-25T06:46:36.216Z,16.70
2018-08-25T06:49:28.724Z,16.88
2018-08-25T06:50:54.596Z,17.00
2018-08-25T06:52:28.176Z,17.10
2018-08-25T06:53:49.350Z,17.23
2018-08-25T06:55:15.756Z,17.35
2018-08-25T06:58:11.412Z,17.55
2018-08-25T06:59:37.958Z,17.72
2018-08-25T07:01:05.180Z,17.88
2018-08-25T07:02:31.660Z,18.04
2018-08-25T07:04:00.213Z,18.20
2018-08-25T07:05:27.573Z,18.31
2018-08-25T07:06:56.665Z,18.34
2018-08-25T07:08:20.792Z,18.35
2018-08-25T07:09:48.421Z,18.30
2018-08-25T07:11:15.760Z,18.30
2018-08-25T07:12:43.362Z,18.27
2018-08-25T07:14:12.723Z,18.20
2018-08-25T07:15:38.129Z,18.16
2018-08-25T07:17:04.531Z,18.11
2018-08-25T07:18:31.975Z,18.08
2018-08-25T07:19:58.491Z,18.03
2018-08-25T07:21:26.927Z,17.98
2018-08-25T07:22:53.270Z,17.95
2018-08-25T07:24:20.746Z,17.92
2018-08-25T07:25:47.327Z,17.88
2018-08-25T07:27:15.774Z,17.87
2018-08-25T07:28:43.160Z,17.87
2018-08-25T07:30:09.694Z,17.92
2018-08-25T07:31:37.186Z,18.01
2018-08-25T07:33:05.636Z,18.08
2018-08-25T07:34:31.202Z,18.18
2018-08-25T07:35:58.646Z,18.24
2018-08-25T07:37:26.352Z,18.24
2018-08-25T07:38:52.520Z,18.27
2018-08-25T07:40:21.077Z,18.29
2018-08-25T07:41:48.557Z,18.33
2018-08-25T07:43:15.046Z,18.38
2018-08-25T07:44:42.489Z,18.42
2018-08-25T07:46:09.090Z,18.43
2018-08-25T07:47:36.464Z,18.42
2018-08-25T07:49:04.166Z,18.42
2018-08-25T07:50:31.389Z,18.43
2018-08-25T07:51:58.828Z,18.42
2018-08-25T07:53:27.497Z,18.40
2018-08-25T07:54:54.429Z,18.39
2018-08-25T07:56:21.764Z,18.41
2018-08-25T07:57:48.036Z,18.44
2018-08-25T07:59:14.840Z,18.44
2018-08-25T08:00:41.186Z,18.49
2018-08-25T08:02:08.489Z,18.54
2018-08-25T08:03:36.009Z,18.59
2018-08-25T08:05:02.243Z,18.63
2018-08-25T08:06:30.500Z,18.66
2018-08-25T08:07:56.790Z,18.68
2018-08-25T08:09:24.020Z,18.65
2018-08-25T08:10:51.542Z,18.68
2018-08-25T08:12:19.997Z,18.70
2018-08-25T08:13:46.288Z,18.73
2018-08-25T08:15:14.745Z,18.74
2018-08-25T08:16:42.358Z,18.73
2018-08-25T08:18:08.774Z,18.73
2018-08-25T08:19:34.944Z,18.79
2018-08-25T08:21:02.449Z,18.87
2018-08-25T08:22:31.022Z,18.94
2018-08-25T08:23:58.474Z,19.03
2018-08-25T08:25:25.075Z,19.16
2018-08-25T08:26:52.471Z,19.26
2018-08-25T08:28:18.890Z,19.32
2018-08-25T08:29:46.557Z,19.37
2018-08-25T08:31:13.046Z,19.40
2018-08-25T08:32:40.543Z,19.38
2018-08-25T08:34:06.861Z,19.34
2018-08-25T08:35:34.511Z,19.30
2018-08-25T08:37:01.743Z,19.31
2018-08-25T08:38:29.053Z,19.30
2018-08-25T08:39:56.699Z,19.30
2018-08-25T08:41:23.604Z,19.31
2018-08-25T08:42:51.158Z,19.34
2018-08-25T08:44:19.573Z,19.34
2018-08-25T08:45:45.416Z,19.37
2018-08-25T08:47:14.071Z,19.39
2018-08-25T08:48:41.466Z,19.44
2018-08-25T08:50:08.030Z,19.39
2018-08-25T08:51:35.433Z,19.34
2018-08-25T08:53:02.934Z,19.30
2018-08-25T08:54:30.523Z,19.32
2018-08-25T08:55:57.593Z,19.33
2018-08-25T08:57:24.961Z,19.33
2018-08-25T08:58:53.740Z,19.31
2018-08-25T09:00:20.478Z,19.28
2018-08-25T09:01:47.955Z,19.25
2018-08-25T09:03:14.231Z,19.19
2018-08-25T09:04:42.633Z,19.14
2018-08-25T09:06:10.069Z,19.09
2018-08-25T09:07:36.596Z,19.01
2018-08-25T09:09:04.763Z,18.94
2018-08-25T09:10:32.203Z,18.90
2018-08-25T09:11:58.802Z,18.85
2018-08-25T09:13:27.357Z,18.76
2018-08-25T09:14:53.859Z,18.73
2018-08-25T09:16:21.260Z,18.68
2018-08-25T09:17:48.763Z,18.66
2018-08-25T09:19:15.496Z,18.67
2018-08-25T09:20:41.683Z,18.68
2018-08-25T09:22:09.387Z,18.69
2018-08-25T09:23:34.810Z,18.72
2018-08-25T09:25:01.944Z,18.75
2018-08-25T09:26:30.536Z,18.79
2018-08-25T09:27:56.431Z,18.86
2018-08-25T09:29:24.807Z,18.92
2018-08-25T09:30:52.264Z,18.98
2018-08-25T09:32:20.018Z,19.04
2018-08-25T09:33:46.489Z,19.11
2018-08-25T09:35:15.112Z,19.16
2018-08-25T09:36:42.657Z,19.20
2018-08-25T09:38:10.051Z,19.25
2018-08-25T09:39:36.359Z,19.25
2018-08-25T09:41:04.070Z,19.26
2018-08-25T09:42:30.328Z,19.24
2018-08-25T09:43:57.358Z,19.21
2018-08-25T09:45:24.886Z,19.19
2018-08-25T09:46:52.901Z,19.15
2018-08-25T09:48:18.997Z,19.16
2018-08-25T09:49:45.552Z,19.17
2018-08-25T09:51:12.052Z,19.17
2018-08-25T09:52:39.607Z,19.14
2018-08-25T09:54:07.165Z,19.17
2018-08-25T09:55:34.585Z,19.17
2018-08-25T09:57:02.064Z,19.14
2018-08-25T09:58:30.680Z,19.15
2018-08-25T09:59:57.961Z,19.14
2018-08-25T10:01:24.803Z,19.13
2018-08-25T10:02:51.179Z,19.14
2018-08-25T10:04:19.716Z,19.17
2018-08-25T10:05:47.262Z,19.17
2018-08-25T10:07:13.808Z,19.19
2018-08-25T10:08:40.098Z,19.21
2018-08-25T10:10:07.755Z,19.24
2018-08-25T10:11:34.326Z,19.28
2018-08-25T10:13:01.722Z,19.31
2018-08-25T10:14:29.102Z,19.35
2018-08-25T10:15:56.340Z,19.41
2018-08-25T10:17:23.942Z,19.46
2018-08-25T10:18:51.278Z,19.48
2018-08-25T10:20:19.835Z,19.49
2018-08-25T10:21:46.263Z,19.55
2018-08-25T10:23:14.773Z,19.60
2018-08-25T10:24:40.572Z,19.68
2018-08-25T10:26:07.558Z,19.73
2018-08-25T10:27:37.449Z,19.77
2018-08-25T10:29:00.990Z,19.85
2018-08-25T10:30:28.499Z,19.89
2018-08-25T10:31:55.974Z,19.88
2018-08-25T10:33:23.030Z,19.92
2018-08-25T10:34:51.499Z,19.95
2018-08-25T10:36:17.935Z,20.00
2018-08-25T10:37:46.590Z,20.07
2018-08-25T10:39:14.087Z,20.15
2018-08-25T10:40:40.962Z,20.22
2018-08-25T10:42:07.547Z,20.28
2018-08-25T10:43:35.002Z,20.33
2018-08-25T10:45:02.452Z,20.35
2018-08-25T10:46:29.857Z,20.39
2018-08-25T10:47:57.350Z,20.42
2018-08-25T10:49:25.749Z,20.49
2018-08-25T10:50:52.175Z,20.56
2018-08-25T10:52:19.949Z,20.62
2018-08-25T10:53:48.546Z,20.66
2018-08-25T10:55:15.080Z,20.67
2018-08-25T10:56:42.407Z,20.67
2018-08-25T10:58:09.995Z,20.64
2018-08-25T10:59:37.501Z,20.59
2018-08-25T11:01:05.209Z,20.59
2018-08-25T11:02:31.207Z,20.61
2018-08-25T11:03:58.606Z,20.63
2018-08-25T11:05:26.702Z,20.67
2018-08-25T11:06:53.583Z,20.68
2018-08-25T11:08:19.838Z,20.64
2018-08-25T11:09:47.469Z,20.61
2018-08-25T11:11:15.974Z,20.59
2018-08-25T11:12:41.497Z,20.61
2018-08-25T11:14:09.323Z,20.61
2018-08-25T11:15:34.953Z,20.64
2018-08-25T11:17:03.459Z,20.66
2018-08-25T11:18:30.865Z,20.62
2018-08-25T11:19:56.930Z,20.57
2018-08-25T11:21:24.341Z,20.55
2018-08-25T11:22:51.387Z,20.49
2018-08-25T11:24:19.115Z,20.49
2018-08-25T11:25:46.449Z,20.44
2018-08-25T11:27:13.062Z,20.38
2018-08-25T11:28:39.769Z,20.32
2018-08-25T11:30:07.248Z,20.25
2018-08-25T11:31:35.766Z,20.19
2018-08-25T11:33:03.264Z,20.12
2018-08-25T11:34:29.800Z,20.04
2018-08-25T11:35:57.237Z,19.97
2018-08-25T11:37:24.816Z,19.86
2018-08-25T11:38:53.237Z,19.71
2018-08-25T11:40:19.622Z,19.63
2018-08-25T11:41:49.035Z,19.43
2018-08-25T11:43:13.403Z,18.97
2018-08-25T11:44:41.067Z,18.40
2018-08-25T11:46:09.311Z,17.96
2018-08-25T11:47:35.738Z,17.56
2018-08-25T11:49:04.231Z,17.28
2018-08-25T11:50:31.639Z,17.20
2018-08-25T11:51:59.082Z,17.10
2018-08-25T11:53:26.414Z,16.86
2018-08-25T11:54:53.688Z,16.69
2018-08-25T11:56:20.080Z,16.66
2018-08-25T11:58:55.479Z,16.38
2018-08-25T12:25:43.871Z,16.52
2018-08-25T12:34:46.419Z,16.93
2018-08-25T12:41:13.581Z,17.37
2018-08-25T12:42:38.166Z,17.53
2018-08-25T12:44:04.357Z,17.73
2018-08-25T12:45:31.817Z,17.77
2018-08-25T12:46:59.195Z,17.86
2018-08-25T12:48:26.420Z,17.97
2018-08-25T12:49:54.795Z,18.01
2018-08-25T12:51:21.082Z,18.10
2018-08-25T12:52:48.741Z,18.28
2018-08-25T12:54:16.131Z,18.49
2018-08-25T12:55:43.664Z,18.66
2018-08-25T12:57:11.247Z,18.74
2018-08-25T12:58:38.671Z,18.78
2018-08-25T13:00:06.585Z,18.82
2018-08-25T13:01:32.936Z,18.77
2018-08-25T13:03:01.390Z,18.70
2018-08-25T13:04:27.839Z,18.74
2018-08-25T13:05:56.191Z,18.91
2018-08-25T13:07:22.191Z,19.12
2018-08-25T13:08:50.338Z,19.34
2018-08-25T13:10:16.923Z,19.45
2018-08-25T13:11:44.286Z,19.49
2018-08-25T13:13:12.028Z,19.58
2018-08-25T13:14:38.267Z,19.78
2018-08-25T13:16:06.612Z,19.95
2018-08-25T13:17:34.093Z,20.14
2018-08-25T13:19:00.434Z,20.33
2018-08-25T13:20:28.507Z,20.40
2018-08-25T13:21:55.182Z,20.41
2018-08-25T13:23:23.056Z,20.50
2018-08-25T13:24:49.540Z,20.47
2018-08-25T13:26:17.081Z,20.47
2018-08-25T13:27:45.671Z,20.32
2018-08-25T13:29:11.646Z,20.13
2018-08-25T13:30:39.714Z,19.89
2018-08-25T13:32:12.241Z,19.67
2018-08-25T13:33:34.688Z,19.48
2018-08-25T13:35:01.242Z,19.28
2018-08-25T13:36:29.638Z,19.00
2018-08-25T13:37:56.747Z,18.88
2018-08-25T13:39:22.829Z,18.67
2018-08-25T13:40:50.444Z,18.57
2018-08-25T13:42:18.794Z,18.59
2018-08-25T13:43:46.473Z,18.64
2018-08-25T13:45:12.906Z,18.69
2018-08-25T13:46:41.463Z,18.64
2018-08-25T13:48:07.750Z,18.60
2018-08-25T13:49:36.406Z,18.59
2018-08-25T13:51:02.721Z,18.64
2018-08-25T13:52:31.222Z,18.60
2018-08-25T13:53:57.531Z,18.68
2018-08-25T13:55:24.919Z,18.75
2018-08-25T13:56:52.414Z,18.84
2018-08-25T13:58:19.930Z,18.72
2018-08-25T13:59:47.435Z,18.48
2018-08-25T14:01:14.899Z,18.30
2018-08-25T14:02:43.424Z,18.07
2018-08-25T14:04:10.863Z,17.93
2018-08-25T14:05:38.326Z,17.94
2018-08-25T14:07:05.879Z,17.92
2018-08-25T14:08:32.269Z,17.92
2018-08-25T14:10:00.421Z,17.81
2018-08-25T14:11:26.720Z,17.73
2018-08-25T14:12:54.108Z,17.63
2018-08-25T14:14:21.483Z,17.55
2018-08-25T14:15:49.980Z,17.50
2018-08-25T14:17:17.327Z,17.46
2018-08-25T14:18:43.631Z,17.46
2018-08-25T14:20:10.072Z,17.44
2018-08-25T14:21:38.480Z,17.43
2018-08-25T14:23:04.899Z,17.40
2018-08-25T14:24:32.693Z,17.31
2018-08-25T14:25:58.846Z,17.23
2018-08-25T14:27:27.530Z,17.21
2018-08-25T14:28:54.522Z,17.17
2018-08-25T14:30:21.881Z,17.13
2018-08-25T14:31:48.244Z,17.10
2018-08-25T14:33:15.758Z,17.12
2018-08-25T14:34:43.556Z,17.12
2018-08-25T14:36:11.182Z,17.11
2018-08-25T14:37:36.588Z,17.11
2018-08-25T14:39:04.093Z,17.13
2018-08-25T14:40:31.505Z,17.14
2018-08-25T14:41:59.037Z,17.16
2018-08-25T14:43:26.544Z,17.21
2018-08-25T14:44:52.332Z,17.23
2018-08-25T14:46:19.764Z,17.28
2018-08-25T14:47:47.231Z,17.31
2018-08-25T14:49:15.789Z,17.37
2018-08-25T14:50:42.222Z,17.44
2018-08-25T14:52:09.690Z,17.52
2018-08-25T14:53:38.111Z,17.56
2018-08-25T14:55:05.488Z,17.57
2018-08-25T14:56:31.948Z,17.58
2018-08-25T14:57:58.559Z,17.57
2018-08-25T14:59:26.759Z,17.54
2018-08-25T15:00:53.875Z,17.52
2018-08-25T15:02:21.242Z,17.50
2018-08-25T15:03:48.806Z,17.50
2018-08-25T15:05:15.128Z,17.54
2018-08-25T15:06:42.639Z,17.56
2018-08-25T15:08:10.533Z,17.56
2018-08-25T15:09:38.090Z,17.55
2018-08-25T15:11:04.557Z,17.48
2018-08-25T15:12:31.973Z,17.45
2018-08-25T15:13:59.592Z,17.45
2018-08-25T15:15:28.081Z,17.42
2018-08-25T15:16:54.768Z,17.39
2018-08-25T15:18:22.015Z,17.37
2018-08-25T15:19:49.423Z,17.33
2018-08-25T15:21:16.226Z,17.35
2018-08-25T15:22:41.662Z,17.34
2018-08-25T15:24:09.071Z,17.30
2018-08-25T15:25:36.188Z,17.26
2018-08-25T15:27:03.863Z,17.24
2018-08-25T15:28:30.046Z,17.21
2018-08-25T15:29:58.411Z,17.17
2018-08-25T15:31:25.772Z,17.10
2018-08-25T15:32:52.110Z,17.05
2018-08-25T15:34:19.508Z,16.99
2018-08-25T15:35:46.921Z,16.96
2018-08-25T15:37:14.365Z,16.95
2018-08-25T15:38:41.864Z,16.89
2018-08-25T15:40:09.399Z,16.82
2018-08-25T15:41:35.845Z,16.73
2018-08-25T15:43:04.159Z,16.55
2018-08-25T15:44:30.511Z,16.54
2018-08-25T15:45:57.941Z,16.52
2018-08-25T15:47:26.291Z,16.46
2018-08-25T15:48:53.442Z,16.39
2018-08-25T15:50:20.929Z,16.30
2018-08-25T15:51:47.197Z,16.12
2018-08-25T15:53:14.622Z,16.04
2018-08-25T15:54:42.071Z,15.99
2018-08-25T15:56:10.432Z,16.00
2018-08-25T15:57:36.729Z,15.99
2018-08-25T15:59:04.317Z,15.97
2018-08-25T16:00:32.744Z,15.93
2018-08-25T16:01:58.987Z,15.99
2018-08-25T16:03:27.357Z,16.03
2018-08-25T16:04:53.695Z,16.08
2018-08-25T16:06:22.317Z,16.08
2018-08-25T16:07:48.705Z,16.05
2018-08-25T16:09:15.396Z,16.04
2018-08-25T16:10:42.787Z,15.99
2018-08-25T16:12:08.677Z,15.87
2018-08-25T16:13:38.933Z,15.89
2018-08-25T16:15:03.615Z,15.83
2018-08-25T16:16:30.646Z,15.81
2018-08-25T16:17:56.915Z,15.74
2018-08-25T16:19:23.956Z,15.70
2018-08-25T16:20:52.396Z,15.69
2018-08-25T16:22:19.780Z,15.66
2018-08-25T16:23:46.103Z,15.57
2018-08-25T16:25:14.054Z,15.55
2018-08-25T16:26:40.261Z,15.53
2018-08-25T16:28:07.920Z,15.56
2018-08-25T16:29:34.349Z,15.61
2018-08-25T16:31:02.789Z,15.64
2018-08-25T16:32:28.878Z,15.68
2018-08-25T16:33:56.475Z,15.70
2018-08-25T16:35:22.785Z,15.71
2018-08-25T16:36:53.138Z,15.64
2018-08-25T16:38:18.595Z,15.60
2018-08-25T16:39:44.908Z,15.60
2018-08-25T16:41:12.164Z,15.57
2018-08-25T16:42:39.628Z,15.53
2018-08-25T16:44:06.921Z,15.51
2018-08-25T16:45:32.328Z,15.46
2018-08-25T16:47:00.732Z,15.51
2018-08-25T16:48:28.054Z,15.57
2018-08-25T16:49:55.468Z,15.64
2018-08-25T16:51:22.988Z,15.70
2018-08-25T16:52:49.577Z,15.72
2018-08-25T16:54:14.935Z,15.76
2018-08-25T16:55:42.631Z,15.81
2018-08-25T16:57:08.965Z,15.78
2018-08-25T16:58:35.515Z,15.75
2018-08-25T17:00:03.786Z,15.75
2018-08-25T17:01:31.280Z,15.76
2018-08-25T17:02:58.682Z,15.71
2018-08-25T17:04:25.294Z,15.64
2018-08-25T17:05:51.994Z,15.55
2018-08-25T17:07:18.393Z,15.51
2018-08-25T17:08:45.756Z,15.45
2018-08-25T17:10:13.350Z,15.39
2018-08-25T17:11:41.779Z,15.35
2018-08-25T17:13:09.173Z,15.34
2018-08-25T17:14:35.440Z,15.31
2018-08-25T17:16:02.955Z,15.29
2018-08-25T17:17:28.542Z,15.24
2018-08-25T17:18:56.529Z,15.24
2018-08-25T17:20:22.137Z,15.27
2018-08-25T17:21:49.430Z,15.27
2018-08-25T17:23:17.038Z,15.27
2018-08-25T17:24:43.537Z,15.31
2018-08-25T17:26:11.946Z,15.34
2018-08-25T17:27:37.712Z,15.35
2018-08-25T17:29:05.135Z,15.37
2018-08-25T17:30:32.655Z,15.42
2018-08-25T17:32:00.246Z,15.47
2018-08-25T17:33:28.328Z,15.47
2018-08-25T17:34:54.798Z,15.45
2018-08-25T17:36:22.151Z,15.44
2018-08-25T17:37:49.538Z,15.41
2018-08-25T17:39:18.010Z,15.39
2018-08-25T17:40:44.366Z,15.35
2018-08-25T17:42:12.920Z,15.33
2018-08-25T17:43:40.320Z,15.35
2018-08-25T17:45:07.099Z,15.38
2018-08-25T17:46:34.453Z,15.40
2018-08-25T17:48:01.464Z,15.37
2018-08-25T17:49:27.826Z,15.31
2018-08-25T17:50:56.432Z,15.29
2018-08-25T17:52:23.518Z,15.26
2018-08-25T17:53:49.929Z,15.27
2018-08-25T17:55:17.237Z,15.30
2018-08-25T17:56:45.917Z,15.29
2018-08-25T17:58:13.308Z,15.28
2018-08-25T17:59:40.657Z,15.30
2018-08-25T18:01:06.040Z,15.34
2018-08-25T18:02:32.760Z,15.34
2018-08-25T18:04:03.286Z,15.34
2018-08-25T18:05:26.646Z,15.31
2018-08-25T18:06:54.549Z,15.28
2018-08-25T18:08:22.021Z,15.26
2018-08-25T18:09:49.404Z,15.19
2018-08-25T18:11:16.875Z,15.13
2018-08-25T18:12:42.292Z,15.09
2018-08-25T18:14:10.838Z,15.06
2018-08-25T18:15:36.097Z,15.06
2018-08-25T18:17:04.429Z,15.00
2018-08-25T18:18:31.527Z,14.96
2018-08-25T18:19:57.841Z,14.97
2018-08-25T18:21:24.596Z,14.95
2018-08-25T18:22:53.121Z,14.89
2018-08-25T18:24:19.668Z,14.84
2018-08-25T18:25:47.989Z,14.80
2018-08-25T18:27:14.433Z,14.78
2018-08-25T18:28:41.831Z,14.74
2018-08-25T18:30:10.506Z,14.74
2018-08-25T18:31:36.640Z,14.76
2018-08-25T18:33:04.024Z,14.78
2018-08-25T18:34:32.496Z,14.80
2018-08-25T18:35:58.522Z,14.82
2018-08-25T18:37:25.850Z,14.85
2018-08-25T18:38:54.065Z,14.88
2018-08-25T18:40:21.413Z,14.87
2018-08-25T18:41:47.512Z,14.88
2018-08-25T18:43:15.100Z,14.88
2018-08-25T18:44:42.358Z,14.85
2018-08-25T18:46:09.893Z,14.85
2018-08-25T18:47:35.283Z,14.84
2018-08-25T18:49:02.758Z,14.83
2018-08-25T18:50:30.875Z,14.84
2018-08-25T18:51:56.895Z,14.83
2018-08-25T18:53:23.840Z,14.81
2018-08-25T18:54:52.287Z,14.72
2018-08-25T18:56:19.620Z,14.69
2018-08-25T18:57:45.957Z,14.69
2018-08-25T18:59:14.337Z,14.69
2018-08-25T19:00:42.462Z,14.69
2018-08-25T19:02:08.161Z,14.69
2018-08-25T19:03:33.272Z,14.67
2018-08-25T19:05:01.649Z,14.66
2018-08-25T19:06:27.987Z,14.60
2018-08-25T19:07:55.694Z,14.54
2018-08-25T19:09:23.865Z,14.53
2018-08-25T19:10:50.292Z,14.49
2018-08-25T19:12:17.755Z,14.45
2018-08-25T19:13:46.383Z,14.35
2018-08-25T19:15:12.565Z,14.34
2018-08-25T19:18:07.289Z,14.27
2018-08-25T19:19:34.649Z,14.21
2018-08-25T19:21:01.932Z,14.18
2018-08-25T19:22:27.347Z,14.12
2018-08-25T19:23:55.552Z,14.04
2018-08-25T19:25:21.896Z,14.01
2018-08-25T19:26:48.343Z,13.99